sensor_id;sensor_type;location;lat;lon;timestamp;P1;durP1;ratioP1;P2;durP2;ratioP2
21601;SDS011;10963;50.934;4.668;2023-05-07T00:01:37;13.67;;;8.50;;
21601;SDS011;10963;50.934;4.668;2023-05-07T00:04:05;9.80;;;7.53;;
21601;SDS011;10963;50.934;4.668;2023-05-07T00:06:33;14.27;;;8.90;;
21601;SDS011;10963;50.934;4.668;2023-05-07T00:09:01;17.03;;;9.23;;
21601;SDS011;10963;50.934;4.668;2023-05-07T00:11:28;11.13;;;7.87;;
21601;SDS011;10963;50.934;4.668;2023-05-07T00:13:58;12.97;;;8.43;;
21601;SDS011;10963;50.934;4.668;2023-05-07T00:16:26;13.07;;;8.00;;
21601;SDS011;10963;50.934;4.668;2023-05-07T00:18:52;12.27;;;8.27;;
21601;SDS011;10963;50.934;4.668;2023-05-07T00:21:18;12.03;;;8.33;;
21601;SDS011;10963;50.934;4.668;2023-05-07T00:23:46;11.03;;;7.80;;
21601;SDS011;10963;50.934;4.668;2023-05-07T00:26:12;11.20;;;7.60;;
21601;SDS011;10963;50.934;4.668;2023-05-07T00:28:43;12.47;;;8.03;;
21601;SDS011;10963;50.934;4.668;2023-05-07T00:31:08;12.60;;;7.60;;
21601;SDS011;10963;50.934;4.668;2023-05-07T00:33:37;8.73;;;7.20;;
21601;SDS011;10963;50.934;4.668;2023-05-07T00:36:03;12.70;;;7.53;;
21601;SDS011;10963;50.934;4.668;2023-05-07T00:38:29;9.93;;;7.73;;
21601;SDS011;10963;50.934;4.668;2023-05-07T00:40:55;9.27;;;6.87;;
21601;SDS011;10963;50.934;4.668;2023-05-07T00:43:23;8.87;;;6.73;;
21601;SDS011;10963;50.934;4.668;2023-05-07T00:45:48;11.07;;;7.23;;
21601;SDS011;10963;50.934;4.668;2023-05-07T00:48:15;10.30;;;7.70;;
21601;SDS011;10963;50.934;4.668;2023-05-07T00:50:41;11.87;;;7.63;;
21601;SDS011;10963;50.934;4.668;2023-05-07T00:53:07;10.10;;;7.67;;
21601;SDS011;10963;50.934;4.668;2023-05-07T00:55:35;13.07;;;8.30;;
21601;SDS011;10963;50.934;4.668;2023-05-07T00:58:03;12.70;;;7.57;;
21601;SDS011;10963;50.934;4.668;2023-05-07T01:00:31;10.63;;;7.50;;
21601;SDS011;10963;50.934;4.668;2023-05-07T01:02:57;8.93;;;6.97;;
21601;SDS011;10963;50.934;4.668;2023-05-07T01:05:24;10.30;;;7.53;;
21601;SDS011;10963;50.934;4.668;2023-05-07T01:07:53;11.23;;;7.70;;
21601;SDS011;10963;50.934;4.668;2023-05-07T01:10:20;11.23;;;8.10;;
21601;SDS011;10963;50.934;4.668;2023-05-07T01:12:46;9.83;;;7.67;;
21601;SDS011;10963;50.934;4.668;2023-05-07T01:15:12;12.43;;;8.00;;
21601;SDS011;10963;50.934;4.668;2023-05-07T01:17:39;13.17;;;8.27;;
21601;SDS011;10963;50.934;4.668;2023-05-07T01:20:08;11.53;;;8.37;;
21601;SDS011;10963;50.934;4.668;2023-05-07T01:22:37;10.20;;;8.00;;
21601;SDS011;10963;50.934;4.668;2023-05-07T01:25:06;11.47;;;7.67;;
21601;SDS011;10963;50.934;4.668;2023-05-07T01:27:33;11.97;;;7.97;;
21601;SDS011;10963;50.934;4.668;2023-05-07T01:30:00;10.87;;;7.83;;
21601;SDS011;10963;50.934;4.668;2023-05-07T01:32:38;12.80;;;7.33;;
21601;SDS011;10963;50.934;4.668;2023-05-07T01:35:15;12.10;;;7.97;;
21601;SDS011;10963;50.934;4.668;2023-05-07T01:37:47;10.83;;;8.07;;
21601;SDS011;10963;50.934;4.668;2023-05-07T01:40:14;13.20;;;8.17;;
21601;SDS011;10963;50.934;4.668;2023-05-07T01:42:40;11.50;;;8.00;;
21601;SDS011;10963;50.934;4.668;2023-05-07T01:45:10;12.10;;;8.80;;
21601;SDS011;10963;50.934;4.668;2023-05-07T01:47:37;12.37;;;8.67;;
21601;SDS011;10963;50.934;4.668;2023-05-07T01:50:03;15.77;;;9.70;;
21601;SDS011;10963;50.934;4.668;2023-05-07T01:52:31;17.17;;;8.97;;
21601;SDS011;10963;50.934;4.668;2023-05-07T01:54:57;11.03;;;8.40;;
21601;SDS011;10963;50.934;4.668;2023-05-07T01:57:22;12.87;;;9.07;;
21601;SDS011;10963;50.934;4.668;2023-05-07T01:59:50;11.93;;;9.50;;
21601;SDS011;10963;50.934;4.668;2023-05-07T02:02:19;12.40;;;9.70;;
21601;SDS011;10963;50.934;4.668;2023-05-07T02:04:44;11.77;;;10.03;;
21601;SDS011;10963;50.934;4.668;2023-05-07T02:07:10;15.20;;;9.77;;
21601;SDS011;10963;50.934;4.668;2023-05-07T02:09:38;13.67;;;9.27;;
21601;SDS011;10963;50.934;4.668;2023-05-07T02:12:04;12.27;;;9.10;;
21601;SDS011;10963;50.934;4.668;2023-05-07T02:14:30;13.33;;;9.60;;
21601;SDS011;10963;50.934;4.668;2023-05-07T02:16:55;13.73;;;9.60;;
21601;SDS011;10963;50.934;4.668;2023-05-07T02:19:21;15.07;;;9.83;;
21601;SDS011;10963;50.934;4.668;2023-05-07T02:21:51;12.33;;;9.77;;
21601;SDS011;10963;50.934;4.668;2023-05-07T02:24:22;14.17;;;10.00;;
21601;SDS011;10963;50.934;4.668;2023-05-07T02:26:48;14.40;;;9.60;;
21601;SDS011;10963;50.934;4.668;2023-05-07T02:29:14;15.37;;;10.10;;
21601;SDS011;10963;50.934;4.668;2023-05-07T02:31:42;14.50;;;10.10;;
21601;SDS011;10963;50.934;4.668;2023-05-07T02:34:12;16.73;;;11.00;;
21601;SDS011;10963;50.934;4.668;2023-05-07T02:36:42;14.20;;;11.23;;
21601;SDS011;10963;50.934;4.668;2023-05-07T02:39:14;15.97;;;10.83;;
21601;SDS011;10963;50.934;4.668;2023-05-07T02:41:40;14.07;;;10.97;;
21601;SDS011;10963;50.934;4.668;2023-05-07T02:44:06;16.00;;;10.90;;
21601;SDS011;10963;50.934;4.668;2023-05-07T02:46:31;16.37;;;11.93;;
21601;SDS011;10963;50.934;4.668;2023-05-07T02:48:59;14.17;;;11.30;;
21601;SDS011;10963;50.934;4.668;2023-05-07T02:51:29;14.70;;;11.53;;
21601;SDS011;10963;50.934;4.668;2023-05-07T02:53:55;19.07;;;12.23;;
21601;SDS011;10963;50.934;4.668;2023-05-07T02:56:21;17.00;;;12.23;;
21601;SDS011;10963;50.934;4.668;2023-05-07T02:58:49;15.20;;;10.70;;
21601;SDS011;10963;50.934;4.668;2023-05-07T03:01:15;16.83;;;11.37;;
21601;SDS011;10963;50.934;4.668;2023-05-07T03:03:41;17.53;;;11.57;;
21601;SDS011;10963;50.934;4.668;2023-05-07T03:06:08;16.20;;;11.43;;
21601;SDS011;10963;50.934;4.668;2023-05-07T03:08:34;16.57;;;10.37;;
21601;SDS011;10963;50.934;4.668;2023-05-07T03:11:03;20.43;;;12.73;;
21601;SDS011;10963;50.934;4.668;2023-05-07T03:13:31;18.83;;;11.50;;
21601;SDS011;10963;50.934;4.668;2023-05-07T03:15:59;19.43;;;11.80;;
21601;SDS011;10963;50.934;4.668;2023-05-07T03:18:25;16.57;;;10.50;;
21601;SDS011;10963;50.934;4.668;2023-05-07T03:20:51;14.30;;;10.13;;
21601;SDS011;10963;50.934;4.668;2023-05-07T03:23:17;14.40;;;9.30;;
21601;SDS011;10963;50.934;4.668;2023-05-07T03:25:45;17.00;;;10.67;;
21601;SDS011;10963;50.934;4.668;2023-05-07T03:28:10;17.27;;;10.57;;
21601;SDS011;10963;50.934;4.668;2023-05-07T03:30:36;13.27;;;10.57;;
21601;SDS011;10963;50.934;4.668;2023-05-07T03:33:04;13.30;;;9.27;;
21601;SDS011;10963;50.934;4.668;2023-05-07T03:35:32;14.57;;;10.30;;
21601;SDS011;10963;50.934;4.668;2023-05-07T03:37:58;15.53;;;12.00;;
21601;SDS011;10963;50.934;4.668;2023-05-07T03:40:23;13.23;;;11.07;;
21601;SDS011;10963;50.934;4.668;2023-05-07T03:42:51;17.67;;;11.23;;
21601;SDS011;10963;50.934;4.668;2023-05-07T03:45:21;14.93;;;10.10;;
21601;SDS011;10963;50.934;4.668;2023-05-07T03:47:47;17.03;;;11.17;;
21601;SDS011;10963;50.934;4.668;2023-05-07T03:50:13;12.77;;;10.80;;
21601;SDS011;10963;50.934;4.668;2023-05-07T03:52:41;15.53;;;10.97;;
21601;SDS011;10963;50.934;4.668;2023-05-07T03:55:10;13.53;;;9.70;;
21601;SDS011;10963;50.934;4.668;2023-05-07T03:57:35;17.70;;;11.73;;
21601;SDS011;10963;50.934;4.668;2023-05-07T04:00:01;14.97;;;11.40;;
21601;SDS011;10963;50.934;4.668;2023-05-07T04:02:32;14.73;;;11.23;;
21601;SDS011;10963;50.934;4.668;2023-05-07T04:05:03;16.00;;;11.97;;
21601;SDS011;10963;50.934;4.668;2023-05-07T04:07:28;22.13;;;14.70;;
21601;SDS011;10963;50.934;4.668;2023-05-07T04:09:59;22.70;;;15.23;;
21601;SDS011;10963;50.934;4.668;2023-05-07T04:12:29;20.30;;;13.30;;
21601;SDS011;10963;50.934;4.668;2023-05-07T04:14:57;17.93;;;12.83;;
21601;SDS011;10963;50.934;4.668;2023-05-07T04:17:23;17.37;;;12.87;;
21601;SDS011;10963;50.934;4.668;2023-05-07T04:19:48;19.47;;;13.90;;
21601;SDS011;10963;50.934;4.668;2023-05-07T04:22:14;20.53;;;13.00;;
21601;SDS011;10963;50.934;4.668;2023-05-07T04:24:40;28.93;;;14.80;;
21601;SDS011;10963;50.934;4.668;2023-05-07T04:27:06;17.37;;;12.40;;
21601;SDS011;10963;50.934;4.668;2023-05-07T04:29:31;20.00;;;12.70;;
21601;SDS011;10963;50.934;4.668;2023-05-07T04:31:57;13.73;;;11.17;;
21601;SDS011;10963;50.934;4.668;2023-05-07T04:34:23;18.30;;;10.67;;
21601;SDS011;10963;50.934;4.668;2023-05-07T04:36:49;11.77;;;10.30;;
21601;SDS011;10963;50.934;4.668;2023-05-07T04:39:15;17.93;;;11.83;;
21601;SDS011;10963;50.934;4.668;2023-05-07T04:41:45;14.63;;;11.00;;
21601;SDS011;10963;50.934;4.668;2023-05-07T04:44:11;15.57;;;10.87;;
21601;SDS011;10963;50.934;4.668;2023-05-07T04:46:39;17.13;;;11.70;;
21601;SDS011;10963;50.934;4.668;2023-05-07T04:49:04;21.00;;;12.40;;
21601;SDS011;10963;50.934;4.668;2023-05-07T04:51:30;14.47;;;11.47;;
21601;SDS011;10963;50.934;4.668;2023-05-07T04:54:00;15.47;;;11.30;;
21601;SDS011;10963;50.934;4.668;2023-05-07T04:56:27;19.83;;;12.57;;
21601;SDS011;10963;50.934;4.668;2023-05-07T04:58:57;19.67;;;13.20;;
21601;SDS011;10963;50.934;4.668;2023-05-07T05:01:25;17.87;;;12.93;;
21601;SDS011;10963;50.934;4.668;2023-05-07T05:03:51;17.07;;;12.97;;
21601;SDS011;10963;50.934;4.668;2023-05-07T05:06:17;17.63;;;12.70;;
21601;SDS011;10963;50.934;4.668;2023-05-07T05:08:42;18.13;;;12.67;;
21601;SDS011;10963;50.934;4.668;2023-05-07T05:11:08;19.00;;;13.30;;
21601;SDS011;10963;50.934;4.668;2023-05-07T05:13:33;17.73;;;12.77;;
21601;SDS011;10963;50.934;4.668;2023-05-07T05:15:59;18.90;;;13.00;;
21601;SDS011;10963;50.934;4.668;2023-05-07T05:18:27;16.03;;;12.40;;
21601;SDS011;10963;50.934;4.668;2023-05-07T05:20:53;19.53;;;13.13;;
21601;SDS011;10963;50.934;4.668;2023-05-07T05:23:19;18.57;;;12.90;;
21601;SDS011;10963;50.934;4.668;2023-05-07T05:25:47;17.23;;;12.63;;
21601;SDS011;10963;50.934;4.668;2023-05-07T05:28:12;22.90;;;13.70;;
21601;SDS011;10963;50.934;4.668;2023-05-07T05:30:40;18.40;;;12.47;;
21601;SDS011;10963;50.934;4.668;2023-05-07T05:33:06;19.83;;;12.90;;
21601;SDS011;10963;50.934;4.668;2023-05-07T05:35:32;16.67;;;12.00;;
21601;SDS011;10963;50.934;4.668;2023-05-07T05:37:57;17.93;;;12.60;;
21601;SDS011;10963;50.934;4.668;2023-05-07T05:40:28;17.97;;;12.67;;
21601;SDS011;10963;50.934;4.668;2023-05-07T05:42:54;16.83;;;12.50;;
21601;SDS011;10963;50.934;4.668;2023-05-07T05:45:19;15.50;;;11.97;;
21601;SDS011;10963;50.934;4.668;2023-05-07T05:47:45;17.23;;;13.17;;
21601;SDS011;10963;50.934;4.668;2023-05-07T05:50:11;17.43;;;13.10;;
21601;SDS011;10963;50.934;4.668;2023-05-07T05:52:39;15.07;;;12.20;;
21601;SDS011;10963;50.934;4.668;2023-05-07T05:55:06;16.60;;;12.27;;
21601;SDS011;10963;50.934;4.668;2023-05-07T05:57:32;17.50;;;12.80;;
21601;SDS011;10963;50.934;4.668;2023-05-07T05:59:57;19.67;;;13.67;;
21601;SDS011;10963;50.934;4.668;2023-05-07T06:02:23;18.70;;;13.13;;
21601;SDS011;10963;50.934;4.668;2023-05-07T06:04:51;20.17;;;13.27;;
21601;SDS011;10963;50.934;4.668;2023-05-07T06:07:17;17.23;;;12.97;;
21601;SDS011;10963;50.934;4.668;2023-05-07T06:09:45;20.77;;;14.37;;
21601;SDS011;10963;50.934;4.668;2023-05-07T06:12:11;16.97;;;12.40;;
21601;SDS011;10963;50.934;4.668;2023-05-07T06:14:42;18.20;;;12.50;;
21601;SDS011;10963;50.934;4.668;2023-05-07T06:17:08;15.67;;;12.37;;
21601;SDS011;10963;50.934;4.668;2023-05-07T06:19:36;17.40;;;12.80;;
21601;SDS011;10963;50.934;4.668;2023-05-07T06:22:02;15.93;;;12.50;;
21601;SDS011;10963;50.934;4.668;2023-05-07T06:24:33;17.23;;;13.03;;
21601;SDS011;10963;50.934;4.668;2023-05-07T06:26:58;20.30;;;13.07;;
21601;SDS011;10963;50.934;4.668;2023-05-07T06:29:24;18.37;;;12.00;;
21601;SDS011;10963;50.934;4.668;2023-05-07T06:32:00;18.17;;;12.47;;
21601;SDS011;10963;50.934;4.668;2023-05-07T06:34:35;15.80;;;12.23;;
21601;SDS011;10963;50.934;4.668;2023-05-07T06:37:03;19.70;;;13.50;;
21601;SDS011;10963;50.934;4.668;2023-05-07T06:39:30;17.63;;;12.37;;
21601;SDS011;10963;50.934;4.668;2023-05-07T06:41:56;21.33;;;13.47;;
21601;SDS011;10963;50.934;4.668;2023-05-07T06:44:22;17.40;;;12.27;;
21601;SDS011;10963;50.934;4.668;2023-05-07T06:46:47;18.47;;;12.43;;
21601;SDS011;10963;50.934;4.668;2023-05-07T06:49:16;16.23;;;12.20;;
21601;SDS011;10963;50.934;4.668;2023-05-07T06:51:41;17.83;;;10.77;;
21601;SDS011;10963;50.934;4.668;2023-05-07T06:54:09;19.37;;;11.60;;
21601;SDS011;10963;50.934;4.668;2023-05-07T06:56:37;18.30;;;12.43;;
21601;SDS011;10963;50.934;4.668;2023-05-07T06:59:03;16.47;;;11.23;;
21601;SDS011;10963;50.934;4.668;2023-05-07T07:01:29;17.27;;;10.90;;
21601;SDS011;10963;50.934;4.668;2023-05-07T07:03:55;15.93;;;10.63;;
21601;SDS011;10963;50.934;4.668;2023-05-07T07:06:23;18.60;;;10.67;;
21601;SDS011;10963;50.934;4.668;2023-05-07T07:08:48;17.60;;;10.60;;
21601;SDS011;10963;50.934;4.668;2023-05-07T07:11:14;17.37;;;10.23;;
21601;SDS011;10963;50.934;4.668;2023-05-07T07:13:43;19.63;;;10.07;;
21601;SDS011;10963;50.934;4.668;2023-05-07T07:16:08;13.70;;;8.80;;
21601;SDS011;10963;50.934;4.668;2023-05-07T07:18:34;14.30;;;9.30;;
21601;SDS011;10963;50.934;4.668;2023-05-07T07:21:00;14.50;;;8.60;;
21601;SDS011;10963;50.934;4.668;2023-05-07T07:23:26;14.00;;;8.10;;
21601;SDS011;10963;50.934;4.668;2023-05-07T07:25:52;12.07;;;7.10;;
21601;SDS011;10963;50.934;4.668;2023-05-07T07:28:20;13.37;;;7.80;;
21601;SDS011;10963;50.934;4.668;2023-05-07T07:30:46;13.13;;;7.17;;
21601;SDS011;10963;50.934;4.668;2023-05-07T07:33:14;14.33;;;7.07;;
21601;SDS011;10963;50.934;4.668;2023-05-07T07:35:42;15.13;;;7.77;;
21601;SDS011;10963;50.934;4.668;2023-05-07T07:38:08;13.30;;;7.10;;
21601;SDS011;10963;50.934;4.668;2023-05-07T07:40:36;13.00;;;7.10;;
21601;SDS011;10963;50.934;4.668;2023-05-07T07:43:02;12.10;;;6.77;;
21601;SDS011;10963;50.934;4.668;2023-05-07T07:45:28;12.77;;;7.50;;
21601;SDS011;10963;50.934;4.668;2023-05-07T07:47:54;15.77;;;7.13;;
21601;SDS011;10963;50.934;4.668;2023-05-07T07:50:22;9.07;;;6.40;;
21601;SDS011;10963;50.934;4.668;2023-05-07T07:52:48;10.27;;;6.13;;
21601;SDS011;10963;50.934;4.668;2023-05-07T07:55:13;13.63;;;6.47;;
21601;SDS011;10963;50.934;4.668;2023-05-07T07:57:43;11.43;;;6.27;;
21601;SDS011;10963;50.934;4.668;2023-05-07T08:00:11;12.33;;;6.40;;
21601;SDS011;10963;50.934;4.668;2023-05-07T08:02:38;16.00;;;6.70;;
21601;SDS011;10963;50.934;4.668;2023-05-07T08:05:04;10.40;;;6.60;;
21601;SDS011;10963;50.934;4.668;2023-05-07T08:07:29;14.43;;;7.03;;
21601;SDS011;10963;50.934;4.668;2023-05-07T08:09:55;12.00;;;6.07;;
21601;SDS011;10963;50.934;4.668;2023-05-07T08:12:23;13.57;;;6.60;;
21601;SDS011;10963;50.934;4.668;2023-05-07T08:14:49;13.07;;;6.30;;
21601;SDS011;10963;50.934;4.668;2023-05-07T08:17:18;9.60;;;6.37;;
21601;SDS011;10963;50.934;4.668;2023-05-07T08:19:43;11.67;;;6.67;;
21601;SDS011;10963;50.934;4.668;2023-05-07T08:22:09;13.07;;;6.20;;
21601;SDS011;10963;50.934;4.668;2023-05-07T08:24:35;12.90;;;7.27;;
21601;SDS011;10963;50.934;4.668;2023-05-07T08:27:01;16.13;;;6.30;;
21601;SDS011;10963;50.934;4.668;2023-05-07T08:29:27;11.13;;;6.40;;
21601;SDS011;10963;50.934;4.668;2023-05-07T08:31:53;12.27;;;6.53;;
21601;SDS011;10963;50.934;4.668;2023-05-07T08:34:19;12.57;;;6.23;;
21601;SDS011;10963;50.934;4.668;2023-05-07T08:36:45;9.57;;;6.60;;
21601;SDS011;10963;50.934;4.668;2023-05-07T08:39:13;11.17;;;5.77;;
21601;SDS011;10963;50.934;4.668;2023-05-07T08:41:45;14.83;;;6.87;;
21601;SDS011;10963;50.934;4.668;2023-05-07T08:44:17;15.53;;;6.40;;
21601;SDS011;10963;50.934;4.668;2023-05-07T08:46:49;11.57;;;6.07;;
21601;SDS011;10963;50.934;4.668;2023-05-07T08:49:19;10.00;;;5.43;;
21601;SDS011;10963;50.934;4.668;2023-05-07T08:51:50;8.50;;;5.43;;
21601;SDS011;10963;50.934;4.668;2023-05-07T08:54:16;12.20;;;6.53;;
21601;SDS011;10963;50.934;4.668;2023-05-07T08:56:42;11.40;;;5.83;;
21601;SDS011;10963;50.934;4.668;2023-05-07T08:59:08;9.57;;;5.57;;
21601;SDS011;10963;50.934;4.668;2023-05-07T09:01:34;7.53;;;5.17;;
21601;SDS011;10963;50.934;4.668;2023-05-07T09:04:03;10.53;;;6.53;;
21601;SDS011;10963;50.934;4.668;2023-05-07T09:06:30;12.63;;;6.10;;
21601;SDS011;10963;50.934;4.668;2023-05-07T09:08:56;11.83;;;5.80;;
21601;SDS011;10963;50.934;4.668;2023-05-07T09:11:23;9.30;;;5.60;;
21601;SDS011;10963;50.934;4.668;2023-05-07T09:13:53;10.70;;;5.40;;
21601;SDS011;10963;50.934;4.668;2023-05-07T09:16:23;8.10;;;5.27;;
21601;SDS011;10963;50.934;4.668;2023-05-07T09:18:53;7.27;;;5.27;;
21601;SDS011;10963;50.934;4.668;2023-05-07T09:21:21;8.90;;;5.10;;
21601;SDS011;10963;50.934;4.668;2023-05-07T09:23:51;7.87;;;4.60;;
21601;SDS011;10963;50.934;4.668;2023-05-07T09:26:20;9.20;;;5.37;;
21601;SDS011;10963;50.934;4.668;2023-05-07T09:28:49;8.37;;;5.23;;
21601;SDS011;10963;50.934;4.668;2023-05-07T09:31:18;7.10;;;5.10;;
21601;SDS011;10963;50.934;4.668;2023-05-07T09:33:44;9.33;;;4.63;;
21601;SDS011;10963;50.934;4.668;2023-05-07T09:36:11;8.53;;;4.10;;
21601;SDS011;10963;50.934;4.668;2023-05-07T09:38:37;8.90;;;3.97;;
21601;SDS011;10963;50.934;4.668;2023-05-07T09:41:04;7.77;;;3.63;;
21601;SDS011;10963;50.934;4.668;2023-05-07T09:43:35;6.90;;;4.33;;
21601;SDS011;10963;50.934;4.668;2023-05-07T09:46:07;7.60;;;3.90;;
21601;SDS011;10963;50.934;4.668;2023-05-07T09:48:39;7.23;;;3.90;;
21601;SDS011;10963;50.934;4.668;2023-05-07T09:51:18;7.00;;;4.00;;
21601;SDS011;10963;50.934;4.668;2023-05-07T09:53:53;6.23;;;4.00;;
21601;SDS011;10963;50.934;4.668;2023-05-07T09:56:19;4.03;;;3.00;;
21601;SDS011;10963;50.934;4.668;2023-05-07T09:58:47;6.47;;;3.50;;
21601;SDS011;10963;50.934;4.668;2023-05-07T10:01:15;7.03;;;3.90;;
21601;SDS011;10963;50.934;4.668;2023-05-07T10:03:46;5.83;;;3.57;;
21601;SDS011;10963;50.934;4.668;2023-05-07T10:06:13;5.97;;;3.53;;
21601;SDS011;10963;50.934;4.668;2023-05-07T10:08:40;5.30;;;3.20;;
21601;SDS011;10963;50.934;4.668;2023-05-07T10:11:09;5.63;;;2.57;;
21601;SDS011;10963;50.934;4.668;2023-05-07T10:13:39;6.10;;;2.67;;
21601;SDS011;10963;50.934;4.668;2023-05-07T10:16:06;6.70;;;2.80;;
21601;SDS011;10963;50.934;4.668;2023-05-07T10:18:32;4.93;;;2.83;;
21601;SDS011;10963;50.934;4.668;2023-05-07T10:21:02;5.73;;;2.93;;
21601;SDS011;10963;50.934;4.668;2023-05-07T10:23:33;6.27;;;3.43;;
21601;SDS011;10963;50.934;4.668;2023-05-07T10:25:59;6.40;;;3.70;;
21601;SDS011;10963;50.934;4.668;2023-05-07T10:28:31;5.40;;;3.70;;
21601;SDS011;10963;50.934;4.668;2023-05-07T10:33:48;7.13;;;4.60;;
21601;SDS011;10963;50.934;4.668;2023-05-07T10:36:17;8.30;;;4.80;;
21601;SDS011;10963;50.934;4.668;2023-05-07T10:38:46;10.40;;;4.30;;
21601;SDS011;10963;50.934;4.668;2023-05-07T10:41:14;7.83;;;3.70;;
21601;SDS011;10963;50.934;4.668;2023-05-07T10:43:42;6.20;;;3.20;;
21601;SDS011;10963;50.934;4.668;2023-05-07T10:46:09;6.60;;;2.63;;
21601;SDS011;10963;50.934;4.668;2023-05-07T10:51:41;5.07;;;2.50;;
21601;SDS011;10963;50.934;4.668;2023-05-07T10:56:36;3.67;;;2.70;;
21601;SDS011;10963;50.934;4.668;2023-05-07T11:01:58;7.10;;;3.03;;
21601;SDS011;10963;50.934;4.668;2023-05-07T11:04:24;6.77;;;3.00;;
21601;SDS011;10963;50.934;4.668;2023-05-07T11:10:06;6.67;;;4.13;;
21601;SDS011;10963;50.934;4.668;2023-05-07T11:15:07;5.00;;;3.50;;
21601;SDS011;10963;50.934;4.668;2023-05-07T11:17:52;7.23;;;4.30;;
21601;SDS011;10963;50.934;4.668;2023-05-07T11:20:19;8.23;;;4.20;;
21601;SDS011;10963;50.934;4.668;2023-05-07T11:22:45;7.23;;;3.60;;
21601;SDS011;10963;50.934;4.668;2023-05-07T11:25:17;6.43;;;3.80;;
21601;SDS011;10963;50.934;4.668;2023-05-07T11:27:44;6.80;;;3.70;;
21601;SDS011;10963;50.934;4.668;2023-05-07T11:30:11;4.60;;;3.07;;
21601;SDS011;10963;50.934;4.668;2023-05-07T11:32:43;5.20;;;3.07;;
21601;SDS011;10963;50.934;4.668;2023-05-07T11:35:15;4.53;;;3.37;;
21601;SDS011;10963;50.934;4.668;2023-05-07T11:37:43;6.70;;;3.10;;
21601;SDS011;10963;50.934;4.668;2023-05-07T11:40:13;7.37;;;3.53;;
21601;SDS011;10963;50.934;4.668;2023-05-07T11:42:41;6.07;;;4.30;;
21601;SDS011;10963;50.934;4.668;2023-05-07T11:45:09;7.20;;;4.07;;
21601;SDS011;10963;50.934;4.668;2023-05-07T11:47:37;5.80;;;3.70;;
21601;SDS011;10963;50.934;4.668;2023-05-07T11:50:04;4.63;;;3.57;;
21601;SDS011;10963;50.934;4.668;2023-05-07T11:52:32;6.40;;;4.20;;
21601;SDS011;10963;50.934;4.668;2023-05-07T11:54:59;9.90;;;3.83;;
21601;SDS011;10963;50.934;4.668;2023-05-07T11:57:29;7.63;;;3.60;;
21601;SDS011;10963;50.934;4.668;2023-05-07T11:59:56;5.20;;;3.63;;
21601;SDS011;10963;50.934;4.668;2023-05-07T12:02:22;6.80;;;3.73;;
21601;SDS011;10963;50.934;4.668;2023-05-07T12:04:52;7.70;;;3.47;;
21601;SDS011;10963;50.934;4.668;2023-05-07T12:07:18;5.87;;;3.37;;
21601;SDS011;10963;50.934;4.668;2023-05-07T12:09:44;6.23;;;2.90;;
21601;SDS011;10963;50.934;4.668;2023-05-07T12:12:11;7.80;;;3.20;;
21601;SDS011;10963;50.934;4.668;2023-05-07T12:14:42;5.77;;;2.87;;
21601;SDS011;10963;50.934;4.668;2023-05-07T12:17:10;3.23;;;2.50;;
21601;SDS011;10963;50.934;4.668;2023-05-07T12:19:39;5.27;;;2.03;;
21601;SDS011;10963;50.934;4.668;2023-05-07T12:22:07;2.90;;;2.00;;
21601;SDS011;10963;50.934;4.668;2023-05-07T12:24:43;4.93;;;2.73;;
21601;SDS011;10963;50.934;4.668;2023-05-07T12:27:14;4.90;;;1.80;;
21601;SDS011;10963;50.934;4.668;2023-05-07T12:29:47;2.63;;;1.80;;
21601;SDS011;10963;50.934;4.668;2023-05-07T12:32:19;5.27;;;1.97;;
21601;SDS011;10963;50.934;4.668;2023-05-07T12:34:51;4.47;;;2.30;;
21601;SDS011;10963;50.934;4.668;2023-05-07T12:37:23;6.47;;;2.30;;
21601;SDS011;10963;50.934;4.668;2023-05-07T12:40:03;3.97;;;2.03;;
21601;SDS011;10963;50.934;4.668;2023-05-07T12:42:36;3.93;;;2.87;;
21601;SDS011;10963;50.934;4.668;2023-05-07T12:47:34;3.73;;;2.30;;
21601;SDS011;10963;50.934;4.668;2023-05-07T12:50:01;5.13;;;2.60;;
21601;SDS011;10963;50.934;4.668;2023-05-07T12:52:30;3.73;;;2.30;;
21601;SDS011;10963;50.934;4.668;2023-05-07T12:55:03;3.63;;;1.90;;
21601;SDS011;10963;50.934;4.668;2023-05-07T12:57:43;3.23;;;1.93;;
21601;SDS011;10963;50.934;4.668;2023-05-07T13:00:12;4.43;;;2.00;;
21601;SDS011;10963;50.934;4.668;2023-05-07T13:02:44;4.37;;;2.10;;
21601;SDS011;10963;50.934;4.668;2023-05-07T13:05:10;4.60;;;2.30;;
21601;SDS011;10963;50.934;4.668;2023-05-07T13:07:36;2.13;;;1.93;;
21601;SDS011;10963;50.934;4.668;2023-05-07T13:10:02;4.70;;;2.40;;
21601;SDS011;10963;50.934;4.668;2023-05-07T13:12:29;5.93;;;2.20;;
21601;SDS011;10963;50.934;4.668;2023-05-07T13:14:57;3.97;;;2.20;;
21601;SDS011;10963;50.934;4.668;2023-05-07T13:17:25;5.23;;;2.40;;
21601;SDS011;10963;50.934;4.668;2023-05-07T13:19:50;5.47;;;2.50;;
21601;SDS011;10963;50.934;4.668;2023-05-07T13:22:18;5.10;;;2.33;;
21601;SDS011;10963;50.934;4.668;2023-05-07T13:24:46;4.37;;;2.70;;
21601;SDS011;10963;50.934;4.668;2023-05-07T13:27:12;4.00;;;1.93;;
21601;SDS011;10963;50.934;4.668;2023-05-07T13:29:37;4.83;;;2.67;;
21601;SDS011;10963;50.934;4.668;2023-05-07T13:32:05;5.07;;;2.20;;
21601;SDS011;10963;50.934;4.668;2023-05-07T13:34:31;3.10;;;2.43;;
21601;SDS011;10963;50.934;4.668;2023-05-07T13:36:59;4.30;;;2.37;;
21601;SDS011;10963;50.934;4.668;2023-05-07T13:39:25;5.27;;;2.80;;
21601;SDS011;10963;50.934;4.668;2023-05-07T13:41:50;3.97;;;2.37;;
21601;SDS011;10963;50.934;4.668;2023-05-07T13:44:16;4.23;;;2.47;;
21601;SDS011;10963;50.934;4.668;2023-05-07T13:46:42;5.53;;;2.30;;
21601;SDS011;10963;50.934;4.668;2023-05-07T13:49:10;3.37;;;2.43;;
21601;SDS011;10963;50.934;4.668;2023-05-07T13:51:37;6.70;;;2.40;;
21601;SDS011;10963;50.934;4.668;2023-05-07T13:54:03;4.13;;;2.80;;
21601;SDS011;10963;50.934;4.668;2023-05-07T13:56:29;6.00;;;2.83;;
21601;SDS011;10963;50.934;4.668;2023-05-07T13:58:59;3.90;;;2.47;;
21601;SDS011;10963;50.934;4.668;2023-05-07T14:01:27;5.27;;;2.40;;
21601;SDS011;10963;50.934;4.668;2023-05-07T14:03:53;3.13;;;2.20;;
21601;SDS011;10963;50.934;4.668;2023-05-07T14:06:20;5.67;;;2.63;;
21601;SDS011;10963;50.934;4.668;2023-05-07T14:08:46;5.20;;;2.43;;
21601;SDS011;10963;50.934;4.668;2023-05-07T14:11:12;4.00;;;2.47;;
21601;SDS011;10963;50.934;4.668;2023-05-07T14:13:38;7.17;;;2.73;;
21601;SDS011;10963;50.934;4.668;2023-05-07T14:16:04;3.23;;;2.40;;
21601;SDS011;10963;50.934;4.668;2023-05-07T14:18:30;7.07;;;2.87;;
21601;SDS011;10963;50.934;4.668;2023-05-07T14:20:55;4.47;;;2.60;;
21601;SDS011;10963;50.934;4.668;2023-05-07T14:23:21;3.97;;;2.80;;
21601;SDS011;10963;50.934;4.668;2023-05-07T14:25:51;3.40;;;2.60;;
21601;SDS011;10963;50.934;4.668;2023-05-07T14:28:18;5.90;;;2.83;;
21601;SDS011;10963;50.934;4.668;2023-05-07T14:30:44;3.80;;;2.57;;
21601;SDS011;10963;50.934;4.668;2023-05-07T14:33:09;3.77;;;2.80;;
21601;SDS011;10963;50.934;4.668;2023-05-07T14:35:35;4.87;;;2.70;;
21601;SDS011;10963;50.934;4.668;2023-05-07T14:38:01;4.03;;;2.87;;
21601;SDS011;10963;50.934;4.668;2023-05-07T14:40:27;5.13;;;2.97;;
21601;SDS011;10963;50.934;4.668;2023-05-07T14:42:53;6.07;;;3.07;;
21601;SDS011;10963;50.934;4.668;2023-05-07T14:45:20;4.73;;;3.03;;
21601;SDS011;10963;50.934;4.668;2023-05-07T14:47:48;6.73;;;4.00;;
21601;SDS011;10963;50.934;4.668;2023-05-07T14:50:16;4.90;;;3.33;;
21601;SDS011;10963;50.934;4.668;2023-05-07T14:52:42;7.10;;;2.90;;
21601;SDS011;10963;50.934;4.668;2023-05-07T14:55:11;5.30;;;3.23;;
21601;SDS011;10963;50.934;4.668;2023-05-07T14:57:37;5.07;;;3.47;;